sensor_id;sensor_type;location;lat;lon;timestamp;P1;durP1;ratioP1;P2;durP2;ratioP2
70138;SDS011;57507;43.056;0.150;2024-02-28T00:00:09;7.47;;;1.70;;
70138;SDS011;57507;43.056;0.150;2024-02-28T00:02:36;4.80;;;1.50;;
70138;SDS011;57507;43.056;0.150;2024-02-28T00:05:02;4.72;;;1.67;;
70138;SDS011;57507;43.056;0.150;2024-02-28T00:07:28;2.83;;;1.23;;
70138;SDS011;57507;43.056;0.150;2024-02-28T00:09:55;4.03;;;1.33;;
70138;SDS011;57507;43.056;0.150;2024-02-28T00:12:25;3.83;;;1.23;;
70138;SDS011;57507;43.056;0.150;2024-02-28T00:14:51;4.30;;;1.27;;
70138;SDS011;57507;43.056;0.150;2024-02-28T00:17:17;4.72;;;1.55;;
70138;SDS011;57507;43.056;0.150;2024-02-28T00:19:43;1.50;;;0.80;;
70138;SDS011;57507;43.056;0.150;2024-02-28T00:22:09;4.47;;;1.27;;
70138;SDS011;57507;43.056;0.150;2024-02-28T00:24:35;2.38;;;0.93;;
70138;SDS011;57507;43.056;0.150;2024-02-28T00:27:01;3.42;;;1.30;;
70138;SDS011;57507;43.056;0.150;2024-02-28T00:29:27;2.78;;;0.82;;
70138;SDS011;57507;43.056;0.150;2024-02-28T00:31:53;3.22;;;0.98;;
70138;SDS011;57507;43.056;0.150;2024-02-28T00:34:19;3.15;;;1.15;;
70138;SDS011;57507;43.056;0.150;2024-02-28T00:36:45;4.43;;;1.00;;
70138;SDS011;57507;43.056;0.150;2024-02-28T00:39:11;2.35;;;0.98;;
70138;SDS011;57507;43.056;0.150;2024-02-28T00:41:37;3.65;;;1.33;;
70138;SDS011;57507;43.056;0.150;2024-02-28T00:44:04;2.78;;;0.80;;
70138;SDS011;57507;43.056;0.150;2024-02-28T00:46:30;3.45;;;0.88;;
70138;SDS011;57507;43.056;0.150;2024-02-28T00:48:56;1.38;;;0.85;;
70138;SDS011;57507;43.056;0.150;2024-02-28T00:51:22;1.58;;;0.70;;
70138;SDS011;57507;43.056;0.150;2024-02-28T00:53:48;2.00;;;1.00;;
70138;SDS011;57507;43.056;0.150;2024-02-28T00:56:14;2.03;;;0.90;;
70138;SDS011;57507;43.056;0.150;2024-02-28T00:58:40;2.95;;;1.20;;
70138;SDS011;57507;43.056;0.150;2024-02-28T01:01:06;2.70;;;0.98;;
70138;SDS011;57507;43.056;0.150;2024-02-28T01:03:32;3.35;;;0.73;;
70138;SDS011;57507;43.056;0.150;2024-02-28T01:05:58;4.40;;;0.85;;
70138;SDS011;57507;43.056;0.150;2024-02-28T01:08:26;2.78;;;0.85;;
70138;SDS011;57507;43.056;0.150;2024-02-28T01:10:52;7.13;;;1.35;;
70138;SDS011;57507;43.056;0.150;2024-02-28T01:13:18;2.78;;;1.15;;
70138;SDS011;57507;43.056;0.150;2024-02-28T01:15:44;2.65;;;1.15;;
70138;SDS011;57507;43.056;0.150;2024-02-28T01:18:10;5.57;;;1.58;;
70138;SDS011;57507;43.056;0.150;2024-02-28T01:20:36;6.22;;;1.40;;
70138;SDS011;57507;43.056;0.150;2024-02-28T01:23:02;6.63;;;1.52;;
70138;SDS011;57507;43.056;0.150;2024-02-28T01:25:28;5.55;;;1.27;;
70138;SDS011;57507;43.056;0.150;2024-02-28T01:27:55;3.85;;;1.20;;
70138;SDS011;57507;43.056;0.150;2024-02-28T01:30:25;6.82;;;1.73;;
70138;SDS011;57507;43.056;0.150;2024-02-28T01:32:51;3.70;;;1.20;;
70138;SDS011;57507;43.056;0.150;2024-02-28T01:35:17;5.53;;;1.38;;
70138;SDS011;57507;43.056;0.150;2024-02-28T01:37:43;6.75;;;1.98;;
70138;SDS011;57507;43.056;0.150;2024-02-28T01:40:09;12.43;;;1.98;;
70138;SDS011;57507;43.056;0.150;2024-02-28T01:42:35;8.57;;;1.73;;
70138;SDS011;57507;43.056;0.150;2024-02-28T01:45:02;4.40;;;1.20;;
70138;SDS011;57507;43.056;0.150;2024-02-28T01:47:28;4.80;;;1.35;;
70138;SDS011;57507;43.056;0.150;2024-02-28T01:49:54;4.75;;;1.42;;
70138;SDS011;57507;43.056;0.150;2024-02-28T01:52:20;7.15;;;1.50;;
70138;SDS011;57507;43.056;0.150;2024-02-28T01:54:47;4.80;;;1.42;;
70138;SDS011;57507;43.056;0.150;2024-02-28T01:57:13;4.60;;;1.42;;
70138;SDS011;57507;43.056;0.150;2024-02-28T01:59:39;9.05;;;1.95;;
70138;SDS011;57507;43.056;0.150;2024-02-28T02:02:05;10.10;;;2.38;;
70138;SDS011;57507;43.056;0.150;2024-02-28T02:04:32;7.50;;;1.83;;
70138;SDS011;57507;43.056;0.150;2024-02-28T02:06:58;5.25;;;1.50;;
70138;SDS011;57507;43.056;0.150;2024-02-28T02:09:25;7.82;;;2.05;;
70138;SDS011;57507;43.056;0.150;2024-02-28T02:11:51;6.70;;;1.40;;
70138;SDS011;57507;43.056;0.150;2024-02-28T02:14:17;4.68;;;1.70;;
70138;SDS011;57507;43.056;0.150;2024-02-28T02:16:44;12.20;;;2.28;;
70138;SDS011;57507;43.056;0.150;2024-02-28T02:19:10;9.27;;;1.85;;
70138;SDS011;57507;43.056;0.150;2024-02-28T02:21:55;7.10;;;1.52;;
70138;SDS011;57507;43.056;0.150;2024-02-28T02:24:23;9.68;;;1.58;;
70138;SDS011;57507;43.056;0.150;2024-02-28T02:26:49;3.53;;;1.60;;
70138;SDS011;57507;43.056;0.150;2024-02-28T02:29:17;7.60;;;1.70;;
70138;SDS011;57507;43.056;0.150;2024-02-28T02:31:43;5.47;;;1.23;;
70138;SDS011;57507;43.056;0.150;2024-02-28T02:34:09;7.28;;;2.08;;
70138;SDS011;57507;43.056;0.150;2024-02-28T02:36:35;8.75;;;1.80;;
70138;SDS011;57507;43.056;0.150;2024-02-28T02:39:01;6.07;;;1.38;;
70138;SDS011;57507;43.056;0.150;2024-02-28T02:41:27;2.78;;;1.25;;
70138;SDS011;57507;43.056;0.150;2024-02-28T02:43:53;7.00;;;1.40;;
70138;SDS011;57507;43.056;0.150;2024-02-28T02:46:19;6.90;;;1.45;;
70138;SDS011;57507;43.056;0.150;2024-02-28T02:48:46;5.97;;;1.50;;
70138;SDS011;57507;43.056;0.150;2024-02-28T02:51:12;7.22;;;1.10;;
70138;SDS011;57507;43.056;0.150;2024-02-28T02:53:38;4.57;;;1.25;;
70138;SDS011;57507;43.056;0.150;2024-02-28T02:56:04;8.02;;;1.17;;
70138;SDS011;57507;43.056;0.150;2024-02-28T02:58:30;12.75;;;1.67;;
70138;SDS011;57507;43.056;0.150;2024-02-28T03:00:56;4.85;;;1.25;;
70138;SDS011;57507;43.056;0.150;2024-02-28T03:03:22;7.18;;;1.35;;
70138;SDS011;57507;43.056;0.150;2024-02-28T03:05:48;5.93;;;1.33;;
70138;SDS011;57507;43.056;0.150;2024-02-28T03:08:14;5.45;;;1.08;;
70138;SDS011;57507;43.056;0.150;2024-02-28T03:10:40;3.22;;;0.98;;
70138;SDS011;57507;43.056;0.150;2024-02-28T03:13:06;9.35;;;1.30;;
70138;SDS011;57507;43.056;0.150;2024-02-28T03:15:33;10.52;;;1.25;;
70138;SDS011;57507;43.056;0.150;2024-02-28T03:17:59;5.40;;;1.33;;
70138;SDS011;57507;43.056;0.150;2024-02-28T03:20:25;5.57;;;1.10;;
70138;SDS011;57507;43.056;0.150;2024-02-28T03:22:51;4.30;;;1.38;;
70138;SDS011;57507;43.056;0.150;2024-02-28T03:25:17;4.97;;;1.38;;
70138;SDS011;57507;43.056;0.150;2024-02-28T03:27:43;7.75;;;1.55;;
70138;SDS011;57507;43.056;0.150;2024-02-28T03:30:09;6.22;;;1.70;;
70138;SDS011;57507;43.056;0.150;2024-02-28T03:32:35;8.40;;;1.30;;
70138;SDS011;57507;43.056;0.150;2024-02-28T03:35:01;3.17;;;1.20;;
70138;SDS011;57507;43.056;0.150;2024-02-28T03:37:29;5.05;;;0.98;;
70138;SDS011;57507;43.056;0.150;2024-02-28T03:39:55;5.85;;;1.20;;
70138;SDS011;57507;43.056;0.150;2024-02-28T03:42:21;6.18;;;1.10;;
70138;SDS011;57507;43.056;0.150;2024-02-28T03:44:47;7.43;;;1.20;;
70138;SDS011;57507;43.056;0.150;2024-02-28T03:47:13;6.75;;;1.10;;
70138;SDS011;57507;43.056;0.150;2024-02-28T03:49:41;3.50;;;0.85;;
70138;SDS011;57507;43.056;0.150;2024-02-28T03:52:07;7.72;;;1.30;;
70138;SDS011;57507;43.056;0.150;2024-02-28T03:54:33;4.15;;;1.35;;
70138;SDS011;57507;43.056;0.150;2024-02-28T03:56:59;5.05;;;1.13;;
70138;SDS011;57507;43.056;0.150;2024-02-28T03:59:25;5.90;;;1.20;;
70138;SDS011;57507;43.056;0.150;2024-02-28T04:01:51;2.88;;;1.40;;
70138;SDS011;57507;43.056;0.150;2024-02-28T04:04:17;4.18;;;1.35;;
70138;SDS011;57507;43.056;0.150;2024-02-28T04:06:43;4.70;;;1.13;;
70138;SDS011;57507;43.056;0.150;2024-02-28T04:09:09;6.68;;;1.80;;
70138;SDS011;57507;43.056;0.150;2024-02-28T04:11:36;14.68;;;4.90;;
70138;SDS011;57507;43.056;0.150;2024-02-28T04:14:03;4.55;;;1.02;;
70138;SDS011;57507;43.056;0.150;2024-02-28T04:16:29;16.00;;;5.45;;
70138;SDS011;57507;43.056;0.150;2024-02-28T04:18:55;3.60;;;1.10;;
70138;SDS011;57507;43.056;0.150;2024-02-28T04:21:21;6.25;;;1.55;;
70138;SDS011;57507;43.056;0.150;2024-02-28T04:23:47;5.90;;;1.00;;
70138;SDS011;57507;43.056;0.150;2024-02-28T04:26:13;6.20;;;1.08;;
70138;SDS011;57507;43.056;0.150;2024-02-28T04:28:40;6.55;;;1.48;;
70138;SDS011;57507;43.056;0.150;2024-02-28T04:31:06;4.90;;;1.08;;
70138;SDS011;57507;43.056;0.150;2024-02-28T04:33:34;6.95;;;1.77;;
70138;SDS011;57507;43.056;0.150;2024-02-28T04:36:00;7.57;;;2.30;;
70138;SDS011;57507;43.056;0.150;2024-02-28T04:38:26;10.23;;;3.88;;
70138;SDS011;57507;43.056;0.150;2024-02-28T04:40:52;6.13;;;2.30;;
70138;SDS011;57507;43.056;0.150;2024-02-28T04:43:18;9.60;;;2.10;;
70138;SDS011;57507;43.056;0.150;2024-02-28T04:45:44;4.15;;;1.50;;
70138;SDS011;57507;43.056;0.150;2024-02-28T04:48:10;5.68;;;2.50;;
70138;SDS011;57507;43.056;0.150;2024-02-28T04:50:36;4.45;;;1.15;;
70138;SDS011;57507;43.056;0.150;2024-02-28T04:53:02;5.43;;;1.20;;
70138;SDS011;57507;43.056;0.150;2024-02-28T04:55:28;3.47;;;1.63;;
70138;SDS011;57507;43.056;0.150;2024-02-28T04:57:54;4.78;;;1.20;;
70138;SDS011;57507;43.056;0.150;2024-02-28T05:00:20;2.55;;;1.13;;
70138;SDS011;57507;43.056;0.150;2024-02-28T05:02:46;4.55;;;1.48;;
70138;SDS011;57507;43.056;0.150;2024-02-28T05:05:12;8.57;;;1.30;;
70138;SDS011;57507;43.056;0.150;2024-02-28T05:07:38;3.05;;;0.95;;
70138;SDS011;57507;43.056;0.150;2024-02-28T05:10:04;3.65;;;0.80;;
70138;SDS011;57507;43.056;0.150;2024-02-28T05:12:31;1.98;;;0.70;;
70138;SDS011;57507;43.056;0.150;2024-02-28T05:14:57;4.35;;;0.88;;
70138;SDS011;57507;43.056;0.150;2024-02-28T05:17:23;2.35;;;0.90;;
70138;SDS011;57507;43.056;0.150;2024-02-28T05:19:49;6.35;;;0.77;;
70138;SDS011;57507;43.056;0.150;2024-02-28T05:22:15;4.65;;;0.82;;
70138;SDS011;57507;43.056;0.150;2024-02-28T05:24:41;3.83;;;0.75;;
70138;SDS011;57507;43.056;0.150;2024-02-28T05:27:08;1.30;;;0.60;;
70138;SDS011;57507;43.056;0.150;2024-02-28T05:29:35;4.22;;;1.05;;
70138;SDS011;57507;43.056;0.150;2024-02-28T05:32:01;2.45;;;0.60;;
70138;SDS011;57507;43.056;0.150;2024-02-28T05:34:27;5.15;;;0.82;;
70138;SDS011;57507;43.056;0.150;2024-02-28T05:36:53;4.38;;;0.90;;
70138;SDS011;57507;43.056;0.150;2024-02-28T05:39:19;5.97;;;0.90;;
70138;SDS011;57507;43.056;0.150;2024-02-28T05:41:45;1.77;;;0.70;;
70138;SDS011;57507;43.056;0.150;2024-02-28T05:44:12;3.17;;;0.65;;
70138;SDS011;57507;43.056;0.150;2024-02-28T05:46:38;4.90;;;0.82;;
70138;SDS011;57507;43.056;0.150;2024-02-28T05:49:04;2.03;;;0.68;;
70138;SDS011;57507;43.056;0.150;2024-02-28T05:51:30;3.03;;;0.60;;
70138;SDS011;57507;43.056;0.150;2024-02-28T05:53:56;2.75;;;0.60;;
70138;SDS011;57507;43.056;0.150;2024-02-28T05:56:22;3.38;;;0.70;;
70138;SDS011;57507;43.056;0.150;2024-02-28T05:58:48;5.05;;;0.77;;
70138;SDS011;57507;43.056;0.150;2024-02-28T06:01:15;5.20;;;0.85;;
70138;SDS011;57507;43.056;0.150;2024-02-28T06:03:42;2.40;;;0.93;;
70138;SDS011;57507;43.056;0.150;2024-02-28T06:06:08;2.67;;;0.70;;
70138;SDS011;57507;43.056;0.150;2024-02-28T06:08:34;2.95;;;0.60;;
70138;SDS011;57507;43.056;0.150;2024-02-28T06:11:01;2.78;;;0.60;;
70138;SDS011;57507;43.056;0.150;2024-02-28T06:13:27;4.93;;;0.70;;
70138;SDS011;57507;43.056;0.150;2024-02-28T06:15:54;2.05;;;0.60;;
70138;SDS011;57507;43.056;0.150;2024-02-28T06:18:20;2.67;;;0.90;;
70138;SDS011;57507;43.056;0.150;2024-02-28T06:20:48;2.60;;;0.63;;
70138;SDS011;57507;43.056;0.150;2024-02-28T06:23:14;2.33;;;0.73;;
70138;SDS011;57507;43.056;0.150;2024-02-28T06:25:40;5.43;;;0.80;;
70138;SDS011;57507;43.056;0.150;2024-02-28T06:28:06;1.08;;;0.55;;
70138;SDS011;57507;43.056;0.150;2024-02-28T06:30:32;2.22;;;0.80;;
70138;SDS011;57507;43.056;0.150;2024-02-28T06:32:59;2.53;;;0.60;;
70138;SDS011;57507;43.056;0.150;2024-02-28T06:35:25;1.98;;;0.70;;
70138;SDS011;57507;43.056;0.150;2024-02-28T06:37:51;1.55;;;0.82;;
70138;SDS011;57507;43.056;0.150;2024-02-28T06:40:17;2.00;;;0.70;;
70138;SDS011;57507;43.056;0.150;2024-02-28T06:42:43;1.85;;;0.63;;
70138;SDS011;57507;43.056;0.150;2024-02-28T06:45:09;2.55;;;0.55;;
70138;SDS011;57507;43.056;0.150;2024-02-28T06:47:36;1.13;;;0.57;;
70138;SDS011;57507;43.056;0.150;2024-02-28T06:50:04;1.40;;;0.50;;
70138;SDS011;57507;43.056;0.150;2024-02-28T06:52:30;1.20;;;0.43;;
70138;SDS011;57507;43.056;0.150;2024-02-28T06:54:56;2.42;;;0.75;;
70138;SDS011;57507;43.056;0.150;2024-02-28T06:57:23;2.10;;;0.65;;
70138;SDS011;57507;43.056;0.150;2024-02-28T06:59:49;1.48;;;0.63;;
70138;SDS011;57507;43.056;0.150;2024-02-28T07:02:15;2.10;;;0.70;;
70138;SDS011;57507;43.056;0.150;2024-02-28T07:04:41;0.52;;;0.52;;
70138;SDS011;57507;43.056;0.150;2024-02-28T07:07:07;2.58;;;0.50;;
70138;SDS011;57507;43.056;0.150;2024-02-28T07:09:34;2.00;;;1.00;;
70138;SDS011;57507;43.056;0.150;2024-02-28T07:12:00;1.63;;;0.50;;
70138;SDS011;57507;43.056;0.150;2024-02-28T07:14:26;1.75;;;0.60;;
70138;SDS011;57507;43.056;0.150;2024-02-28T07:16:52;1.55;;;0.50;;
70138;SDS011;57507;43.056;0.150;2024-02-28T07:19:19;4.03;;;0.70;;
70138;SDS011;57507;43.056;0.150;2024-02-28T07:21:45;0.88;;;0.60;;
70138;SDS011;57507;43.056;0.150;2024-02-28T07:24:11;1.45;;;0.68;;
70138;SDS011;57507;43.056;0.150;2024-02-28T07:26:37;0.85;;;0.60;;
70138;SDS011;57507;43.056;0.150;2024-02-28T07:29:04;2.85;;;0.75;;
70138;SDS011;57507;43.056;0.150;2024-02-28T07:31:30;3.97;;;0.90;;
70138;SDS011;57507;43.056;0.150;2024-02-28T07:33:56;1.65;;;0.88;;
70138;SDS011;57507;43.056;0.150;2024-02-28T07:36:22;2.53;;;0.70;;
70138;SDS011;57507;43.056;0.150;2024-02-28T07:38:48;1.42;;;0.85;;
70138;SDS011;57507;43.056;0.150;2024-02-28T07:41:14;1.20;;;0.80;;
70138;SDS011;57507;43.056;0.150;2024-02-28T07:43:43;2.35;;;0.70;;
70138;SDS011;57507;43.056;0.150;2024-02-28T07:46:09;1.60;;;0.77;;
70138;SDS011;57507;43.056;0.150;2024-02-28T07:48:36;2.42;;;1.13;;
70138;SDS011;57507;43.056;0.150;2024-02-28T07:51:06;2.70;;;1.05;;
70138;SDS011;57507;43.056;0.150;2024-02-28T07:53:32;2.42;;;0.88;;
70138;SDS011;57507;43.056;0.150;2024-02-28T07:55:58;4.25;;;1.63;;
70138;SDS011;57507;43.056;0.150;2024-02-28T07:58:24;1.75;;;1.10;;
70138;SDS011;57507;43.056;0.150;2024-02-28T08:00:50;2.10;;;1.40;;
70138;SDS011;57507;43.056;0.150;2024-02-28T08:03:19;3.75;;;1.50;;
70138;SDS011;57507;43.056;0.150;2024-02-28T08:05:45;2.50;;;1.10;;
70138;SDS011;57507;43.056;0.150;2024-02-28T08:08:13;1.55;;;0.75;;
70138;SDS011;57507;43.056;0.150;2024-02-28T08:10:40;4.70;;;1.02;;
70138;SDS011;57507;43.056;0.150;2024-02-28T08:13:06;1.88;;;0.85;;
70138;SDS011;57507;43.056;0.150;2024-02-28T08:15:35;3.15;;;0.80;;
70138;SDS011;57507;43.056;0.150;2024-02-28T08:18:01;1.70;;;0.60;;
70138;SDS011;57507;43.056;0.150;2024-02-28T08:20:27;1.02;;;0.70;;
70138;SDS011;57507;43.056;0.150;2024-02-28T08:22:53;0.68;;;0.68;;
70138;SDS011;57507;43.056;0.150;2024-02-28T08:25:21;1.10;;;0.60;;
70138;SDS011;57507;43.056;0.150;2024-02-28T08:27:47;0.93;;;0.50;;
70138;SDS011;57507;43.056;0.150;2024-02-28T08:30:13;1.50;;;0.50;;
70138;SDS011;57507;43.056;0.150;2024-02-28T08:32:40;1.63;;;0.70;;
70138;SDS011;57507;43.056;0.150;2024-02-28T08:35:08;1.30;;;0.65;;
70138;SDS011;57507;43.056;0.150;2024-02-28T08:37:35;2.50;;;1.02;;
70138;SDS011;57507;43.056;0.150;2024-02-28T08:40:01;1.45;;;0.80;;
70138;SDS011;57507;43.056;0.150;2024-02-28T08:42:27;1.60;;;0.45;;
70138;SDS011;57507;43.056;0.150;2024-02-28T08:44:53;1.90;;;0.70;;
70138;SDS011;57507;43.056;0.150;2024-02-28T08:47:26;1.25;;;0.63;;
70138;SDS011;57507;43.056;0.150;2024-02-28T08:49:55;2.17;;;0.60;;
70138;SDS011;57507;43.056;0.150;2024-02-28T08:52:21;0.82;;;0.70;;
70138;SDS011;57507;43.056;0.150;2024-02-28T08:54:47;2.95;;;0.70;;
70138;SDS011;57507;43.056;0.150;2024-02-28T08:57:14;1.25;;;0.70;;
70138;SDS011;57507;43.056;0.150;2024-02-28T08:59:40;1.85;;;0.93;;
70138;SDS011;57507;43.056;0.150;2024-02-28T09:02:06;2.13;;;1.00;;
70138;SDS011;57507;43.056;0.150;2024-02-28T09:04:32;1.80;;;1.00;;
70138;SDS011;57507;43.056;0.150;2024-02-28T09:06:58;2.72;;;1.05;;
70138;SDS011;57507;43.056;0.150;2024-02-28T09:09:24;1.75;;;0.88;;
70138;SDS011;57507;43.056;0.150;2024-02-28T09:11:50;3.35;;;1.20;;
70138;SDS011;57507;43.056;0.150;2024-02-28T09:14:16;4.43;;;1.92;;
70138;SDS011;57507;43.056;0.150;2024-02-28T09:16:42;1.75;;;0.90;;
70138;SDS011;57507;43.056;0.150;2024-02-28T09:19:09;1.92;;;0.73;;
70138;SDS011;57507;43.056;0.150;2024-02-28T09:21:35;1.50;;;0.73;;
70138;SDS011;57507;43.056;0.150;2024-02-28T09:24:01;0.75;;;0.60;;
70138;SDS011;57507;43.056;0.150;2024-02-28T09:26:27;0.57;;;0.40;;
70138;SDS011;57507;43.056;0.150;2024-02-28T09:28:54;2.25;;;0.47;;
70138;SDS011;57507;43.056;0.150;2024-02-28T09:31:20;0.60;;;0.30;;
70138;SDS011;57507;43.056;0.150;2024-02-28T09:33:46;0.43;;;0.43;;
70138;SDS011;57507;43.056;0.150;2024-02-28T09:36:13;0.93;;;0.40;;
70138;SDS011;57507;43.056;0.150;2024-02-28T09:38:40;0.82;;;0.52;;
70138;SDS011;57507;43.056;0.150;2024-02-28T09:41:07;0.75;;;0.30;;
70138;SDS011;57507;43.056;0.150;2024-02-28T09:43:36;0.55;;;0.30;;
70138;SDS011;57507;43.056;0.150;2024-02-28T09:46:04;0.75;;;0.40;;
70138;SDS011;57507;43.056;0.150;2024-02-28T09:48:30;0.85;;;0.25;;
70138;SDS011;57507;43.056;0.150;2024-02-28T09:50:57;0.50;;;0.50;;
70138;SDS011;57507;43.056;0.150;2024-02-28T09:53:23;0.15;;;0.10;;
70138;SDS011;57507;43.056;0.150;2024-02-28T09:55:50;0.45;;;0.30;;
70138;SDS011;57507;43.056;0.150;2024-02-28T09:58:17;1.33;;;0.85;;
70138;SDS011;57507;43.056;0.150;2024-02-28T10:00:44;0.93;;;0.50;;
70138;SDS011;57507;43.056;0.150;2024-02-28T10:03:12;0.85;;;0.40;;
70138;SDS011;57507;43.056;0.150;2024-02-28T10:05:39;0.68;;;0.40;;
70138;SDS011;57507;43.056;0.150;2024-02-28T10:08:05;1.80;;;0.40;;
70138;SDS011;57507;43.056;0.150;2024-02-28T10:10:36;0.55;;;0.20;;
70138;SDS011;57507;43.056;0.150;2024-02-28T10:13:02;0.63;;;0.40;;
70138;SDS011;57507;43.056;0.150;2024-02-28T10:15:28;0.80;;;0.28;;
70138;SDS011;57507;43.056;0.150;2024-02-28T10:17:54;1.75;;;0.35;;
70138;SDS011;57507;43.056;0.150;2024-02-28T10:20:20;0.28;;;0.25;;
70138;SDS011;57507;43.056;0.150;2024-02-28T10:22:46;0.82;;;0.30;;
70138;SDS011;57507;43.056;0.150;2024-02-28T10:25:13;0.40;;;0.20;;
70138;SDS011;57507;43.056;0.150;2024-02-28T10:27:39;0.20;;;0.20;;
70138;SDS011;57507;43.056;0.150;2024-02-28T10:30:06;0.20;;;0.20;;
70138;SDS011;57507;43.056;0.150;2024-02-28T10:32:32;0.17;;;0.10;;
70138;SDS011;57507;43.056;0.150;2024-02-28T10:35:00;0.05;;;0.05;;
70138;SDS011;57507;43.056;0.150;2024-02-28T10:37:28;0.20;;;0.20;;
70138;SDS011;57507;43.056;0.150;2024-02-28T10:39:57;0.22;;;0.10;;
70138;SDS011;57507;43.056;0.150;2024-02-28T10:42:27;0.10;;;0.10;;
70138;SDS011;57507;43.056;0.150;2024-02-28T10:44:55;0.32;;;0.20;;
70138;SDS011;57507;43.056;0.150;2024-02-28T10:47:24;0.32;;;0.10;;
70138;SDS011;57507;43.056;0.150;2024-02-28T10:49:50;0.20;;;0.20;;
70138;SDS011;57507;43.056;0.150;2024-02-28T10:52:17;0.10;;;0.10;;
70138;SDS011;57507;43.056;0.150;2024-02-28T10:54:46;0.43;;;0.10;;
70138;SDS011;57507;43.056;0.150;2024-02-28T10:57:14;0.05;;;0.05;;
70138;SDS011;57507;43.056;0.150;2024-02-28T10:59:40;0.10;;;0.10;;
70138;SDS011;57507;43.056;0.150;2024-02-28T11:02:09;0.20;;;0.10;;
70138;SDS011;57507;43.056;0.150;2024-02-28T11:04:35;0.10;;;0.10;;
70138;SDS011;57507;43.056;0.150;2024-02-28T11:07:01;0.10;;;0.10;;
70138;SDS011;57507;43.056;0.150;2024-02-28T11:09:28;0.00;;;0.00;;
70138;SDS011;57507;43.056;0.150;2024-02-28T11:11:57;0.10;;;0.10;;
70138;SDS011;57507;43.056;0.150;2024-02-28T11:14:23;0.10;;;0.10;;
70138;SDS011;57507;43.056;0.150;2024-02-28T11:17:01;0.17;;;0.10;;
70138;SDS011;57507;43.056;0.150;2024-02-28T11:19:30;0.10;;;0.10;;
70138;SDS011;57507;43.056;0.150;2024-02-28T11:21:57;0.10;;;0.10;;
70138;SDS011;57507;43.056;0.150;2024-02-28T11:24:24;0.22;;;0.03;;
70138;SDS011;57507;43.056;0.150;2024-02-28T11:26:51;0.10;;;0.10;;
70138;SDS011;57507;43.056;0.150;2024-02-28T11:29:24;0.00;;;0.00;;
70138;SDS011;57507;43.056;0.150;2024-02-28T11:31:51;0.03;;;0.03;;
70138;SDS011;57507;43.056;0.150;2024-02-28T11:34:17;0.20;;;0.10;;
70138;SDS011;57507;43.056;0.150;2024-02-28T11:36:43;0.10;;;0.10;;
70138;SDS011;57507;43.056;0.150;2024-02-28T11:39:09;0.05;;;0.05;;
70138;SDS011;57507;43.056;0.150;2024-02-28T11:41:35;0.10;;;0.10;;
70138;SDS011;57507;43.056;0.150;2024-02-28T11:44:01;0.20;;;0.15;;
70138;SDS011;57507;43.056;0.150;2024-02-28T11:46:27;0.10;;;0.10;;
70138;SDS011;57507;43.056;0.150;2024-02-28T11:48:53;0.00;;;0.00;;
70138;SDS011;57507;43.056;0.150;2024-02-28T11:51:20;0.22;;;0.03;;
70138;SDS011;57507;43.056;0.150;2024-02-28T11:53:46;0.00;;;0.00;;
70138;SDS011;57507;43.056;0.150;2024-02-28T11:56:12;0.20;;;0.10;;
70138;SDS011;57507;43.056;0.150;2024-02-28T11:58:54;0.00;;;0.00;;
70138;SDS011;57507;43.056;0.150;2024-02-28T12:03:58;0.30;;;0.20;;
70138;SDS011;57507;43.056;0.150;2024-02-28T12:06:25;0.10;;;0.10;;
70138;SDS011;57507;43.056;0.150;2024-02-28T12:08:51;0.32;;;0.10;;
70138;SDS011;57507;43.056;0.150;2024-02-28T12:11:18;0.10;;;0.10;;
70138;SDS011;57507;43.056;0.150;2024-02-28T12:13:44;0.00;;;0.00;;
70138;SDS011;57507;43.056;0.150;2024-02-28T12:16:10;0.10;;;0.10;;
70138;SDS011;57507;43.056;0.150;2024-02-28T12:18:37;0.17;;;0.10;;
70138;SDS011;57507;43.056;0.150;2024-02-28T12:21:03;0.10;;;0.10;;
70138;SDS011;57507;43.056;0.150;2024-02-28T12:23:29;0.05;;;0.05;;
70138;SDS011;57507;43.056;0.150;2024-02-28T12:25:55;0.10;;;0.10;;
70138;SDS011;57507;43.056;0.150;2024-02-28T12:28:21;0.17;;;0.10;;
70138;SDS011;57507;43.056;0.150;2024-02-28T12:30:47;0.38;;;0.10;;
70138;SDS011;57507;43.056;0.150;2024-02-28T12:33:13;0.20;;;0.10;;
70138;SDS011;57507;43.056;0.150;2024-02-28T12:35:39;0.15;;;0.10;;
70138;SDS011;57507;43.056;0.150;2024-02-28T12:38:06;0.82;;;0.20;;
70138;SDS011;57507;43.056;0.150;2024-02-28T12:40:32;0.40;;;0.10;;
70138;SDS011;57507;43.056;0.150;2024-02-28T12:42:58;0.65;;;0.10;;
70138;SDS011;57507;43.056;0.150;2024-02-28T12:45:25;0.10;;;0.10;;
70138;SDS011;57507;43.056;0.150;2024-02-28T12:47:51;0.25;;;0.10;;
70138;SDS011;57507;43.056;0.150;2024-02-28T12:50:18;0.60;;;0.15;;
70138;SDS011;57507;43.056;0.150;2024-02-28T12:52:46;0.73;;;0.35;;
70138;SDS011;57507;43.056;0.150;2024-02-28T12:55:15;0.40;;;0.20;;
70138;SDS011;57507;43.056;0.150;2024-02-28T12:57:41;0.00;;;0.00;;
70138;SDS011;57507;43.056;0.150;2024-02-28T13:00:07;0.10;;;0.10;;
70138;SDS011;57507;43.056;0.150;2024-02-28T13:02:33;0.20;;;0.10;;
70138;SDS011;57507;43.056;0.150;2024-02-28T13:04:59;1.17;;;0.25;;
70138;SDS011;57507;43.056;0.150;2024-02-28T13:07:25;0.10;;;0.10;;
70138;SDS011;57507;43.056;0.150;2024-02-28T13:09:51;0.10;;;0.10;;
70138;SDS011;57507;43.056;0.150;2024-02-28T13:12:18;0.15;;;0.10;;
70138;SDS011;57507;43.056;0.150;2024-02-28T13:14:45;0.17;;;0.17;;
70138;SDS011;57507;43.056;0.150;2024-02-28T13:17:11;1.50;;;0.15;;
70138;SDS011;57507;43.056;0.150;2024-02-28T13:19:37;0.95;;;0.22;;
70138;SDS011;57507;43.056;0.150;2024-02-28T13:22:03;0.30;;;0.17;;
70138;SDS011;57507;43.056;0.150;2024-02-28T13:24:29;0.10;;;0.00;;
70138;SDS011;57507;43.056;0.150;2024-02-28T13:26:55;1.10;;;0.20;;
70138;SDS011;57507;43.056;0.150;2024-02-28T13:29:21;0.20;;;0.10;;
70138;SDS011;57507;43.056;0.150;2024-02-28T13:31:47;0.20;;;0.17;;
70138;SDS011;57507;43.056;0.150;2024-02-28T13:34:13;0.30;;;0.20;;
70138;SDS011;57507;43.056;0.150;2024-02-28T13:36:39;0.77;;;0.22;;
70138;SDS011;57507;43.056;0.150;2024-02-28T13:39:09;1.67;;;0.20;;
70138;SDS011;57507;43.056;0.150;2024-02-28T13:41:36;0.65;;;0.20;;
70138;SDS011;57507;43.056;0.150;2024-02-28T13:44:02;0.57;;;0.10;;
70138;SDS011;57507;43.056;0.150;2024-02-28T13:46:28;0.30;;;0.15;;
70138;SDS011;57507;43.056;0.150;2024-02-28T13:48:55;0.10;;;0.10;;
70138;SDS011;57507;43.056;0.150;2024-02-28T13:51:21;0.30;;;0.10;;
70138;SDS011;57507;43.056;0.150;2024-02-28T13:53:48;0.55;;;0.35;;
70138;SDS011;57507;43.056;0.150;2024-02-28T13:56:17;0.40;;;0.10;;
70138;SDS011;57507;43.056;0.150;2024-02-28T13:58:43;0.30;;;0.13;;
70138;SDS011;57507;43.056;0.150;2024-02-28T14:01:09;0.82;;;0.30;;
70138;SDS011;57507;43.056;0.150;2024-02-28T14:03:35;0.43;;;0.05;;
70138;SDS011;57507;43.056;0.150;2024-02-28T14:06:02;0.20;;;0.10;;
70138;SDS011;57507;43.056;0.150;2024-02-28T14:08:28;0.52;;;0.05;;
70138;SDS011;57507;43.056;0.150;2024-02-28T14:10:54;0.28;;;0.20;;
70138;SDS011;57507;43.056;0.150;2024-02-28T14:13:20;0.50;;;0.10;;
70138;SDS011;57507;43.056;0.150;2024-02-28T14:15:46;0.10;;;0.10;;
70138;SDS011;57507;43.056;0.150;2024-02-28T14:18:12;1.00;;;0.10;;
70138;SDS011;57507;43.056;0.150;2024-02-28T14:20:39;0.22;;;0.10;;
70138;SDS011;57507;43.056;0.150;2024-02-28T14:23:05;0.00;;;0.00;;
70138;SDS011;57507;43.056;0.150;2024-02-28T14:25:31;0.38;;;0.10;;
70138;SDS011;57507;43.056;0.150;2024-02-28T14:27:57;0.65;;;0.20;;
70138;SDS011;57507;43.056;0.150;2024-02-28T14:30:23;0.13;;;0.10;;
70138;SDS011;57507;43.056;0.150;2024-02-28T14:32:50;0.47;;;0.10;;
70138;SDS011;57507;43.056;0.150;2024-02-28T14:35:16;0.20;;;0.10;;
70138;SDS011;57507;43.056;0.150;2024-02-28T14:37:42;0.45;;;0.15;;
70138;SDS011;57507;43.056;0.150;2024-02-28T14:40:09;0.55;;;0.10;;
70138;SDS011;57507;43.056;0.150;2024-02-28T14:42:35;0.80;;;0.20;;
70138;SDS011;57507;43.056;0.150;2024-02-28T14:45:02;1.02;;;0.10;;